sensor_id;sensor_type;location;lat;lon;timestamp;P1;durP1;ratioP1;P2;durP2;ratioP2
20458;SDS011;10388;52.314;7.938;2022-10-16T00:02:10;6.50;;;2.70;;
20458;SDS011;10388;52.314;7.938;2022-10-16T00:04:41;4.67;;;2.40;;
20458;SDS011;10388;52.314;7.938;2022-10-16T00:07:11;3.67;;;2.30;;
20458;SDS011;10388;52.314;7.938;2022-10-16T00:09:42;5.83;;;2.73;;
20458;SDS011;10388;52.314;7.938;2022-10-16T00:12:12;6.50;;;2.80;;
20458;SDS011;10388;52.314;7.938;2022-10-16T00:14:43;7.30;;;2.60;;
20458;SDS011;10388;52.314;7.938;2022-10-16T00:19:56;5.63;;;2.70;;
20458;SDS011;10388;52.314;7.938;2022-10-16T00:25:40;5.57;;;3.13;;
20458;SDS011;10388;52.314;7.938;2022-10-16T00:38:49;4.53;;;2.90;;
20458;SDS011;10388;52.314;7.938;2022-10-16T00:52:37;3.83;;;3.43;;
20458;SDS011;10388;52.314;7.938;2022-10-16T00:55:11;6.50;;;3.47;;
20458;SDS011;10388;52.314;7.938;2022-10-16T00:57:43;4.40;;;2.93;;
20458;SDS011;10388;52.314;7.938;2022-10-16T01:00:17;3.80;;;2.90;;
20458;SDS011;10388;52.314;7.938;2022-10-16T01:02:53;5.63;;;3.23;;
20458;SDS011;10388;52.314;7.938;2022-10-16T01:05:37;4.97;;;3.27;;
20458;SDS011;10388;52.314;7.938;2022-10-16T01:08:17;7.00;;;3.63;;
20458;SDS011;10388;52.314;7.938;2022-10-16T01:10:57;7.23;;;4.20;;
20458;SDS011;10388;52.314;7.938;2022-10-16T01:13:51;4.60;;;3.77;;
20458;SDS011;10388;52.314;7.938;2022-10-16T01:16:31;6.03;;;4.07;;
20458;SDS011;10388;52.314;7.938;2022-10-16T01:22:25;7.80;;;4.90;;
20458;SDS011;10388;52.314;7.938;2022-10-16T01:25:08;7.97;;;4.83;;
20458;SDS011;10388;52.314;7.938;2022-10-16T01:27:42;14.13;;;5.50;;
20458;SDS011;10388;52.314;7.938;2022-10-16T01:30:26;10.30;;;6.80;;
20458;SDS011;10388;52.314;7.938;2022-10-16T01:33:01;8.83;;;6.43;;
20458;SDS011;10388;52.314;7.938;2022-10-16T01:35:41;8.33;;;6.20;;
20458;SDS011;10388;52.314;7.938;2022-10-16T01:38:17;18.07;;;6.47;;
20458;SDS011;10388;52.314;7.938;2022-10-16T01:40:56;9.03;;;5.80;;
20458;SDS011;10388;52.314;7.938;2022-10-16T01:44:15;8.90;;;5.90;;
20458;SDS011;10388;52.314;7.938;2022-10-16T01:46:25;9.50;;;5.63;;
20458;SDS011;10388;52.314;7.938;2022-10-16T01:48:57;9.73;;;6.47;;
20458;SDS011;10388;52.314;7.938;2022-10-16T01:51:30;12.30;;;6.40;;
20458;SDS011;10388;52.314;7.938;2022-10-16T01:54:02;8.40;;;6.37;;
20458;SDS011;10388;52.314;7.938;2022-10-16T01:56:36;8.83;;;6.33;;
20458;SDS011;10388;52.314;7.938;2022-10-16T01:59:13;11.27;;;7.63;;
20458;SDS011;10388;52.314;7.938;2022-10-16T02:01:50;9.63;;;6.83;;
20458;SDS011;10388;52.314;7.938;2022-10-16T02:04:28;10.33;;;5.70;;
20458;SDS011;10388;52.314;7.938;2022-10-16T02:07:02;11.77;;;6.90;;
20458;SDS011;10388;52.314;7.938;2022-10-16T02:09:33;9.87;;;6.53;;
20458;SDS011;10388;52.314;7.938;2022-10-16T02:12:11;10.00;;;6.10;;
20458;SDS011;10388;52.314;7.938;2022-10-16T02:14:53;11.43;;;7.27;;
20458;SDS011;10388;52.314;7.938;2022-10-16T02:17:25;9.33;;;7.23;;
20458;SDS011;10388;52.314;7.938;2022-10-16T02:19:55;11.10;;;6.87;;
20458;SDS011;10388;52.314;7.938;2022-10-16T02:25:08;12.83;;;7.53;;
20458;SDS011;10388;52.314;7.938;2022-10-16T02:33:12;11.73;;;7.17;;
20458;SDS011;10388;52.314;7.938;2022-10-16T02:35:46;12.07;;;7.53;;
20458;SDS011;10388;52.314;7.938;2022-10-16T02:38:18;11.67;;;8.03;;
20458;SDS011;10388;52.314;7.938;2022-10-16T02:40:51;15.00;;;8.70;;
20458;SDS011;10388;52.314;7.938;2022-10-16T02:43:22;15.50;;;8.43;;
20458;SDS011;10388;52.314;7.938;2022-10-16T02:45:52;10.90;;;9.13;;
20458;SDS011;10388;52.314;7.938;2022-10-16T02:48:23;14.23;;;8.60;;
20458;SDS011;10388;52.314;7.938;2022-10-16T02:50:53;11.00;;;8.13;;
20458;SDS011;10388;52.314;7.938;2022-10-16T02:53:24;13.33;;;9.17;;
20458;SDS011;10388;52.314;7.938;2022-10-16T02:55:55;12.57;;;8.50;;
20458;SDS011;10388;52.314;7.938;2022-10-16T02:58:25;12.80;;;8.60;;
20458;SDS011;10388;52.314;7.938;2022-10-16T03:00:56;14.70;;;9.47;;
20458;SDS011;10388;52.314;7.938;2022-10-16T03:03:26;14.37;;;8.90;;
20458;SDS011;10388;52.314;7.938;2022-10-16T03:05:57;14.43;;;9.50;;
20458;SDS011;10388;52.314;7.938;2022-10-16T03:08:27;13.67;;;9.40;;
20458;SDS011;10388;52.314;7.938;2022-10-16T03:10:59;15.27;;;9.57;;
20458;SDS011;10388;52.314;7.938;2022-10-16T03:13:30;13.60;;;8.97;;
20458;SDS011;10388;52.314;7.938;2022-10-16T03:16:00;11.77;;;8.23;;
20458;SDS011;10388;52.314;7.938;2022-10-16T03:18:31;14.23;;;9.10;;
20458;SDS011;10388;52.314;7.938;2022-10-16T03:21:01;13.40;;;9.33;;
20458;SDS011;10388;52.314;7.938;2022-10-16T03:23:32;13.13;;;9.07;;
20458;SDS011;10388;52.314;7.938;2022-10-16T03:26:02;14.70;;;8.97;;
20458;SDS011;10388;52.314;7.938;2022-10-16T03:28:33;14.20;;;9.27;;
20458;SDS011;10388;52.314;7.938;2022-10-16T03:31:04;13.17;;;8.90;;
20458;SDS011;10388;52.314;7.938;2022-10-16T03:33:34;13.43;;;8.37;;
20458;SDS011;10388;52.314;7.938;2022-10-16T03:36:05;11.67;;;8.23;;
20458;SDS011;10388;52.314;7.938;2022-10-16T03:38:36;13.40;;;8.87;;
20458;SDS011;10388;52.314;7.938;2022-10-16T03:41:07;13.13;;;8.87;;
20458;SDS011;10388;52.314;7.938;2022-10-16T03:43:37;15.47;;;8.43;;
20458;SDS011;10388;52.314;7.938;2022-10-16T03:46:08;11.77;;;7.60;;
20458;SDS011;10388;52.314;7.938;2022-10-16T03:48:39;12.07;;;8.13;;
20458;SDS011;10388;52.314;7.938;2022-10-16T03:51:09;11.47;;;8.33;;
20458;SDS011;10388;52.314;7.938;2022-10-16T03:53:40;11.50;;;8.10;;
20458;SDS011;10388;52.314;7.938;2022-10-16T03:56:11;9.07;;;7.47;;
20458;SDS011;10388;52.314;7.938;2022-10-16T03:58:41;9.43;;;7.80;;
20458;SDS011;10388;52.314;7.938;2022-10-16T04:01:12;9.43;;;7.40;;
20458;SDS011;10388;52.314;7.938;2022-10-16T04:03:42;8.70;;;7.30;;
20458;SDS011;10388;52.314;7.938;2022-10-16T04:06:13;13.90;;;7.80;;
20458;SDS011;10388;52.314;7.938;2022-10-16T04:08:44;9.10;;;6.83;;
20458;SDS011;10388;52.314;7.938;2022-10-16T04:11:15;10.00;;;7.47;;
20458;SDS011;10388;52.314;7.938;2022-10-16T04:13:46;11.10;;;7.23;;
20458;SDS011;10388;52.314;7.938;2022-10-16T04:16:16;9.70;;;6.30;;
20458;SDS011;10388;52.314;7.938;2022-10-16T04:18:47;9.97;;;6.60;;
20458;SDS011;10388;52.314;7.938;2022-10-16T04:21:17;11.03;;;6.77;;
20458;SDS011;10388;52.314;7.938;2022-10-16T04:23:48;8.57;;;6.40;;
20458;SDS011;10388;52.314;7.938;2022-10-16T04:26:19;9.07;;;6.30;;
20458;SDS011;10388;52.314;7.938;2022-10-16T04:28:50;8.30;;;5.87;;
20458;SDS011;10388;52.314;7.938;2022-10-16T04:31:21;9.03;;;6.00;;
20458;SDS011;10388;52.314;7.938;2022-10-16T04:33:51;8.07;;;5.83;;
20458;SDS011;10388;52.314;7.938;2022-10-16T04:36:22;9.43;;;5.90;;
20458;SDS011;10388;52.314;7.938;2022-10-16T04:38:53;10.23;;;6.00;;
20458;SDS011;10388;52.314;7.938;2022-10-16T04:41:24;10.60;;;5.50;;
20458;SDS011;10388;52.314;7.938;2022-10-16T04:43:54;6.37;;;5.33;;
20458;SDS011;10388;52.314;7.938;2022-10-16T04:46:25;7.37;;;5.13;;
20458;SDS011;10388;52.314;7.938;2022-10-16T04:48:55;7.40;;;5.33;;
20458;SDS011;10388;52.314;7.938;2022-10-16T04:51:26;7.13;;;5.10;;
20458;SDS011;10388;52.314;7.938;2022-10-16T04:53:57;6.63;;;4.63;;
20458;SDS011;10388;52.314;7.938;2022-10-16T04:56:28;5.13;;;4.63;;
20458;SDS011;10388;52.314;7.938;2022-10-16T04:58:59;7.70;;;5.80;;
20458;SDS011;10388;52.314;7.938;2022-10-16T05:01:29;6.77;;;5.27;;
20458;SDS011;10388;52.314;7.938;2022-10-16T05:04:00;6.83;;;4.87;;
20458;SDS011;10388;52.314;7.938;2022-10-16T05:06:31;11.07;;;5.13;;
20458;SDS011;10388;52.314;7.938;2022-10-16T05:09:02;6.30;;;4.73;;
20458;SDS011;10388;52.314;7.938;2022-10-16T05:11:33;6.07;;;5.10;;
20458;SDS011;10388;52.314;7.938;2022-10-16T05:14:04;5.97;;;4.63;;
20458;SDS011;10388;52.314;7.938;2022-10-16T05:16:35;6.77;;;4.40;;
20458;SDS011;10388;52.314;7.938;2022-10-16T05:19:05;6.17;;;4.47;;
20458;SDS011;10388;52.314;7.938;2022-10-16T05:21:36;6.10;;;4.70;;
20458;SDS011;10388;52.314;7.938;2022-10-16T05:24:06;6.40;;;4.60;;
20458;SDS011;10388;52.314;7.938;2022-10-16T05:26:37;5.90;;;3.83;;
20458;SDS011;10388;52.314;7.938;2022-10-16T05:29:08;5.80;;;4.27;;
20458;SDS011;10388;52.314;7.938;2022-10-16T05:31:39;3.90;;;3.50;;
20458;SDS011;10388;52.314;7.938;2022-10-16T05:34:10;6.33;;;4.27;;
20458;SDS011;10388;52.314;7.938;2022-10-16T05:36:40;4.97;;;3.73;;
20458;SDS011;10388;52.314;7.938;2022-10-16T05:39:11;4.83;;;3.97;;
20458;SDS011;10388;52.314;7.938;2022-10-16T05:41:43;4.43;;;3.90;;
20458;SDS011;10388;52.314;7.938;2022-10-16T05:44:14;4.20;;;3.53;;
20458;SDS011;10388;52.314;7.938;2022-10-16T05:46:45;5.07;;;4.00;;
20458;SDS011;10388;52.314;7.938;2022-10-16T05:49:16;4.47;;;3.60;;
20458;SDS011;10388;52.314;7.938;2022-10-16T05:51:47;7.00;;;3.43;;
20458;SDS011;10388;52.314;7.938;2022-10-16T05:54:18;5.13;;;3.70;;
20458;SDS011;10388;52.314;7.938;2022-10-16T05:56:48;5.20;;;3.57;;
20458;SDS011;10388;52.314;7.938;2022-10-16T05:59:19;5.23;;;3.60;;
20458;SDS011;10388;52.314;7.938;2022-10-16T06:01:49;5.27;;;3.50;;
20458;SDS011;10388;52.314;7.938;2022-10-16T06:04:20;4.03;;;3.23;;
20458;SDS011;10388;52.314;7.938;2022-10-16T06:06:51;5.80;;;3.23;;
20458;SDS011;10388;52.314;7.938;2022-10-16T06:09:21;4.80;;;3.13;;
20458;SDS011;10388;52.314;7.938;2022-10-16T06:11:52;5.07;;;3.23;;
20458;SDS011;10388;52.314;7.938;2022-10-16T06:14:22;4.70;;;3.40;;
20458;SDS011;10388;52.314;7.938;2022-10-16T06:16:53;4.60;;;3.33;;
20458;SDS011;10388;52.314;7.938;2022-10-16T06:19:24;4.00;;;3.13;;
20458;SDS011;10388;52.314;7.938;2022-10-16T06:21:54;4.60;;;3.37;;
20458;SDS011;10388;52.314;7.938;2022-10-16T06:24:25;5.27;;;3.47;;
20458;SDS011;10388;52.314;7.938;2022-10-16T06:26:55;9.73;;;3.73;;
20458;SDS011;10388;52.314;7.938;2022-10-16T06:29:26;4.60;;;2.90;;
20458;SDS011;10388;52.314;7.938;2022-10-16T06:31:56;4.57;;;3.30;;
20458;SDS011;10388;52.314;7.938;2022-10-16T06:34:27;4.17;;;2.77;;
20458;SDS011;10388;52.314;7.938;2022-10-16T06:36:57;5.07;;;2.73;;
20458;SDS011;10388;52.314;7.938;2022-10-16T06:39:28;4.93;;;3.10;;
20458;SDS011;10388;52.314;7.938;2022-10-16T06:41:58;2.93;;;2.50;;
20458;SDS011;10388;52.314;7.938;2022-10-16T06:44:29;4.47;;;2.43;;
20458;SDS011;10388;52.314;7.938;2022-10-16T06:46:59;3.80;;;2.50;;
20458;SDS011;10388;52.314;7.938;2022-10-16T06:49:30;3.53;;;2.40;;
20458;SDS011;10388;52.314;7.938;2022-10-16T06:52:00;5.60;;;2.77;;
20458;SDS011;10388;52.314;7.938;2022-10-16T06:54:31;2.30;;;2.13;;
20458;SDS011;10388;52.314;7.938;2022-10-16T06:57:02;3.33;;;2.37;;
20458;SDS011;10388;52.314;7.938;2022-10-16T06:59:32;2.47;;;2.27;;
20458;SDS011;10388;52.314;7.938;2022-10-16T07:02:03;2.97;;;1.87;;
20458;SDS011;10388;52.314;7.938;2022-10-16T07:04:35;3.23;;;2.30;;
20458;SDS011;10388;52.314;7.938;2022-10-16T07:07:06;3.20;;;2.00;;
20458;SDS011;10388;52.314;7.938;2022-10-16T07:09:36;2.60;;;2.07;;
20458;SDS011;10388;52.314;7.938;2022-10-16T07:12:07;2.30;;;1.97;;
20458;SDS011;10388;52.314;7.938;2022-10-16T07:14:37;3.13;;;2.00;;
20458;SDS011;10388;52.314;7.938;2022-10-16T07:17:08;5.73;;;2.30;;
20458;SDS011;10388;52.314;7.938;2022-10-16T07:19:38;2.30;;;2.00;;
20458;SDS011;10388;52.314;7.938;2022-10-16T07:22:09;2.20;;;2.00;;
20458;SDS011;10388;52.314;7.938;2022-10-16T07:24:39;4.43;;;2.00;;
20458;SDS011;10388;52.314;7.938;2022-10-16T07:27:10;2.93;;;2.20;;
20458;SDS011;10388;52.314;7.938;2022-10-16T07:29:40;2.73;;;2.20;;
20458;SDS011;10388;52.314;7.938;2022-10-16T07:32:11;3.73;;;2.00;;
20458;SDS011;10388;52.314;7.938;2022-10-16T07:34:42;4.23;;;2.80;;
20458;SDS011;10388;52.314;7.938;2022-10-16T07:37:12;3.13;;;2.20;;
20458;SDS011;10388;52.314;7.938;2022-10-16T07:39:43;7.47;;;2.40;;
20458;SDS011;10388;52.314;7.938;2022-10-16T07:42:13;2.60;;;2.10;;
20458;SDS011;10388;52.314;7.938;2022-10-16T07:44:44;3.93;;;2.20;;
20458;SDS011;10388;52.314;7.938;2022-10-16T07:47:14;3.53;;;2.03;;
20458;SDS011;10388;52.314;7.938;2022-10-16T07:49:45;3.77;;;2.20;;
20458;SDS011;10388;52.314;7.938;2022-10-16T07:52:16;4.23;;;1.90;;
20458;SDS011;10388;52.314;7.938;2022-10-16T07:54:46;2.20;;;2.00;;
20458;SDS011;10388;52.314;7.938;2022-10-16T07:57:17;2.63;;;1.63;;
20458;SDS011;10388;52.314;7.938;2022-10-16T07:59:49;2.30;;;1.90;;
20458;SDS011;10388;52.314;7.938;2022-10-16T08:02:19;3.57;;;2.13;;
20458;SDS011;10388;52.314;7.938;2022-10-16T08:04:50;3.10;;;1.93;;
20458;SDS011;10388;52.314;7.938;2022-10-16T08:07:20;3.83;;;2.07;;
20458;SDS011;10388;52.314;7.938;2022-10-16T08:09:51;6.60;;;1.93;;
20458;SDS011;10388;52.314;7.938;2022-10-16T08:12:22;2.53;;;1.93;;
20458;SDS011;10388;52.314;7.938;2022-10-16T08:14:53;2.20;;;1.77;;
20458;SDS011;10388;52.314;7.938;2022-10-16T08:17:23;1.93;;;1.67;;
20458;SDS011;10388;52.314;7.938;2022-10-16T08:19:54;3.37;;;1.80;;
20458;SDS011;10388;52.314;7.938;2022-10-16T08:22:24;3.63;;;1.90;;
20458;SDS011;10388;52.314;7.938;2022-10-16T08:24:55;4.23;;;1.93;;
20458;SDS011;10388;52.314;7.938;2022-10-16T08:27:30;2.90;;;1.87;;
20458;SDS011;10388;52.314;7.938;2022-10-16T08:30:04;2.10;;;1.60;;
20458;SDS011;10388;52.314;7.938;2022-10-16T08:32:35;3.60;;;1.97;;
20458;SDS011;10388;52.314;7.938;2022-10-16T08:35:05;3.70;;;1.73;;
20458;SDS011;10388;52.314;7.938;2022-10-16T08:37:36;2.37;;;1.47;;
20458;SDS011;10388;52.314;7.938;2022-10-16T08:40:12;2.57;;;1.70;;
20458;SDS011;10388;52.314;7.938;2022-10-16T08:48:47;2.00;;;1.40;;
20458;SDS011;10388;52.314;7.938;2022-10-16T08:51:22;3.33;;;1.90;;
20458;SDS011;10388;52.314;7.938;2022-10-16T08:53:58;2.10;;;1.40;;
20458;SDS011;10388;52.314;7.938;2022-10-16T08:56:32;1.50;;;1.40;;
20458;SDS011;10388;52.314;7.938;2022-10-16T08:59:03;4.07;;;1.60;;
20458;SDS011;10388;52.314;7.938;2022-10-16T09:01:46;4.90;;;1.60;;
20458;SDS011;10388;52.314;7.938;2022-10-16T09:07:09;2.40;;;1.40;;
20458;SDS011;10388;52.314;7.938;2022-10-16T09:10:09;2.30;;;1.30;;
20458;SDS011;10388;52.314;7.938;2022-10-16T09:12:53;1.77;;;1.40;;
20458;SDS011;10388;52.314;7.938;2022-10-16T09:18:26;5.23;;;1.47;;
20458;SDS011;10388;52.314;7.938;2022-10-16T09:23:56;4.87;;;1.50;;
20458;SDS011;10388;52.314;7.938;2022-10-16T09:26:30;2.97;;;1.60;;
20458;SDS011;10388;52.314;7.938;2022-10-16T09:29:00;3.13;;;1.70;;
20458;SDS011;10388;52.314;7.938;2022-10-16T09:31:32;3.07;;;1.30;;
20458;SDS011;10388;52.314;7.938;2022-10-16T09:34:06;3.10;;;1.33;;
20458;SDS011;10388;52.314;7.938;2022-10-16T09:36:48;1.97;;;1.20;;
20458;SDS011;10388;52.314;7.938;2022-10-16T09:39:20;4.90;;;1.20;;
20458;SDS011;10388;52.314;7.938;2022-10-16T09:41:50;2.47;;;1.03;;
20458;SDS011;10388;52.314;7.938;2022-10-16T09:44:26;2.70;;;1.10;;
20458;SDS011;10388;52.314;7.938;2022-10-16T09:47:05;3.33;;;1.63;;
20458;SDS011;10388;52.314;7.938;2022-10-16T09:49:57;2.17;;;1.07;;
20458;SDS011;10388;52.314;7.938;2022-10-16T09:52:32;5.83;;;1.20;;
20458;SDS011;10388;52.314;7.938;2022-10-16T09:55:13;4.33;;;1.27;;
20458;SDS011;10388;52.314;7.938;2022-10-16T09:57:49;2.13;;;0.97;;
20458;SDS011;10388;52.314;7.938;2022-10-16T10:00:21;3.00;;;1.07;;
20458;SDS011;10388;52.314;7.938;2022-10-16T10:02:53;2.37;;;1.27;;
20458;SDS011;10388;52.314;7.938;2022-10-16T10:05:25;1.93;;;1.10;;
20458;SDS011;10388;52.314;7.938;2022-10-16T10:07:59;3.33;;;1.20;;
20458;SDS011;10388;52.314;7.938;2022-10-16T10:10:33;2.90;;;1.03;;
20458;SDS011;10388;52.314;7.938;2022-10-16T10:13:20;2.40;;;1.00;;
20458;SDS011;10388;52.314;7.938;2022-10-16T10:15:54;1.20;;;0.93;;
20458;SDS011;10388;52.314;7.938;2022-10-16T10:18:25;2.90;;;1.00;;
20458;SDS011;10388;52.314;7.938;2022-10-16T10:20:59;2.23;;;1.17;;
20458;SDS011;10388;52.314;7.938;2022-10-16T10:23:31;2.33;;;1.00;;
20458;SDS011;10388;52.314;7.938;2022-10-16T10:26:12;4.70;;;1.40;;
20458;SDS011;10388;52.314;7.938;2022-10-16T10:29:02;2.50;;;1.17;;
20458;SDS011;10388;52.314;7.938;2022-10-16T10:31:44;3.47;;;1.10;;
20458;SDS011;10388;52.314;7.938;2022-10-16T10:34:47;2.03;;;0.93;;
20458;SDS011;10388;52.314;7.938;2022-10-16T10:40:15;2.43;;;1.03;;
20458;SDS011;10388;52.314;7.938;2022-10-16T10:45:26;1.40;;;0.97;;
20458;SDS011;10388;52.314;7.938;2022-10-16T10:48:25;2.13;;;0.73;;
20458;SDS011;10388;52.314;7.938;2022-10-16T11:02:09;4.07;;;0.90;;
20458;SDS011;10388;52.314;7.938;2022-10-16T11:10:04;2.97;;;0.87;;
20458;SDS011;10388;52.314;7.938;2022-10-16T11:12:42;1.73;;;1.07;;
20458;SDS011;10388;52.314;7.938;2022-10-16T11:15:21;3.77;;;0.97;;
20458;SDS011;10388;52.314;7.938;2022-10-16T11:18:03;2.87;;;1.17;;
20458;SDS011;10388;52.314;7.938;2022-10-16T11:23:26;3.33;;;1.13;;
20458;SDS011;10388;52.314;7.938;2022-10-16T11:26:41;3.23;;;0.87;;
20458;SDS011;10388;52.314;7.938;2022-10-16T11:29:16;3.50;;;1.00;;
20458;SDS011;10388;52.314;7.938;2022-10-16T11:31:53;2.67;;;1.00;;
20458;SDS011;10388;52.314;7.938;2022-10-16T11:34:32;2.33;;;1.17;;
20458;SDS011;10388;52.314;7.938;2022-10-16T11:37:10;2.37;;;1.37;;
20458;SDS011;10388;52.314;7.938;2022-10-16T11:39:44;2.47;;;1.37;;
20458;SDS011;10388;52.314;7.938;2022-10-16T11:45:07;3.63;;;1.47;;
20458;SDS011;10388;52.314;7.938;2022-10-16T11:47:58;4.90;;;1.60;;
20458;SDS011;10388;52.314;7.938;2022-10-16T11:50:38;2.03;;;1.37;;
20458;SDS011;10388;52.314;7.938;2022-10-16T11:53:16;3.70;;;1.60;;
20458;SDS011;10388;52.314;7.938;2022-10-16T11:56:05;2.17;;;1.40;;
20458;SDS011;10388;52.314;7.938;2022-10-16T12:01:43;4.43;;;2.00;;
20458;SDS011;10388;52.314;7.938;2022-10-16T12:04:26;3.67;;;1.80;;
20458;SDS011;10388;52.314;7.938;2022-10-16T12:07:17;2.87;;;1.70;;
20458;SDS011;10388;52.314;7.938;2022-10-16T12:09:53;6.67;;;1.63;;
20458;SDS011;10388;52.314;7.938;2022-10-16T12:12:27;3.40;;;2.20;;
20458;SDS011;10388;52.314;7.938;2022-10-16T12:15:02;3.47;;;2.07;;
20458;SDS011;10388;52.314;7.938;2022-10-16T12:17:49;5.40;;;1.90;;
20458;SDS011;10388;52.314;7.938;2022-10-16T12:20:26;3.20;;;1.87;;
20458;SDS011;10388;52.314;7.938;2022-10-16T12:23:03;3.87;;;2.10;;
20458;SDS011;10388;52.314;7.938;2022-10-16T12:25:35;4.90;;;1.90;;
20458;SDS011;10388;52.314;7.938;2022-10-16T12:30:56;3.43;;;1.80;;
20458;SDS011;10388;52.314;7.938;2022-10-16T12:33:36;3.87;;;1.83;;
20458;SDS011;10388;52.314;7.938;2022-10-16T12:36:16;4.90;;;1.90;;
20458;SDS011;10388;52.314;7.938;2022-10-16T12:38:59;3.40;;;1.73;;
20458;SDS011;10388;52.314;7.938;2022-10-16T12:41:31;5.00;;;2.00;;
20458;SDS011;10388;52.314;7.938;2022-10-16T12:44:04;5.47;;;1.70;;
20458;SDS011;10388;52.314;7.938;2022-10-16T12:46:39;5.33;;;1.40;;
20458;SDS011;10388;52.314;7.938;2022-10-16T12:51:43;4.43;;;1.50;;
20458;SDS011;10388;52.314;7.938;2022-10-16T12:54:18;2.70;;;1.47;;
20458;SDS011;10388;52.314;7.938;2022-10-16T12:57:04;4.90;;;1.67;;
20458;SDS011;10388;52.314;7.938;2022-10-16T12:59:42;2.87;;;1.53;;
20458;SDS011;10388;52.314;7.938;2022-10-16T13:13:19;5.57;;;1.67;;
20458;SDS011;10388;52.314;7.938;2022-10-16T13:16:10;6.93;;;1.13;;
20458;SDS011;10388;52.314;7.938;2022-10-16T13:22:10;4.27;;;1.40;;
20458;SDS011;10388;52.314;7.938;2022-10-16T13:30:25;2.87;;;1.40;;
20458;SDS011;10388;52.314;7.938;2022-10-16T13:33:02;4.17;;;1.33;;
20458;SDS011;10388;52.314;7.938;2022-10-16T13:35:54;2.53;;;1.13;;
20458;SDS011;10388;52.314;7.938;2022-10-16T13:38:27;2.53;;;1.13;;
20458;SDS011;10388;52.314;7.938;2022-10-16T13:41:06;3.63;;;1.10;;
20458;SDS011;10388;52.314;7.938;2022-10-16T13:43:48;3.47;;;1.30;;
20458;SDS011;10388;52.314;7.938;2022-10-16T13:46:22;7.00;;;1.37;;
20458;SDS011;10388;52.314;7.938;2022-10-16T13:49:01;2.53;;;1.10;;
20458;SDS011;10388;52.314;7.938;2022-10-16T13:51:33;3.70;;;1.20;;
20458;SDS011;10388;52.314;7.938;2022-10-16T13:54:04;4.80;;;1.17;;
20458;SDS011;10388;52.314;7.938;2022-10-16T13:56:34;2.80;;;1.03;;
20458;SDS011;10388;52.314;7.938;2022-10-16T13:59:06;5.30;;;1.10;;
20458;SDS011;10388;52.314;7.938;2022-10-16T14:01:53;6.07;;;1.50;;
20458;SDS011;10388;52.314;7.938;2022-10-16T14:04:27;9.30;;;1.50;;
20458;SDS011;10388;52.314;7.938;2022-10-16T14:07:01;2.30;;;0.97;;
20458;SDS011;10388;52.314;7.938;2022-10-16T14:09:32;4.20;;;1.00;;
20458;SDS011;10388;52.314;7.938;2022-10-16T14:12:08;3.27;;;1.30;;
20458;SDS011;10388;52.314;7.938;2022-10-16T14:14:41;3.97;;;1.60;;
20458;SDS011;10388;52.314;7.938;2022-10-16T14:17:27;3.47;;;1.20;;
20458;SDS011;10388;52.314;7.938;2022-10-16T14:20:00;2.90;;;1.03;;
20458;SDS011;10388;52.314;7.938;2022-10-16T14:22:35;5.13;;;1.10;;
20458;SDS011;10388;52.314;7.938;2022-10-16T14:27:56;6.87;;;1.30;;
20458;SDS011;10388;52.314;7.938;2022-10-16T14:30:28;4.30;;;1.33;;
20458;SDS011;10388;52.314;7.938;2022-10-16T14:33:04;2.97;;;1.20;;
20458;SDS011;10388;52.314;7.938;2022-10-16T14:35:37;6.20;;;1.30;;
20458;SDS011;10388;52.314;7.938;2022-10-16T14:38:17;2.27;;;1.00;;
20458;SDS011;10388;52.314;7.938;2022-10-16T14:40:49;3.67;;;1.30;;
20458;SDS011;10388;52.314;7.938;2022-10-16T14:43:21;5.93;;;1.40;;
20458;SDS011;10388;52.314;7.938;2022-10-16T14:45:54;2.23;;;1.27;;
20458;SDS011;10388;52.314;7.938;2022-10-16T14:48:26;3.33;;;1.03;;
20458;SDS011;10388;52.314;7.938;2022-10-16T14:50:57;4.40;;;1.13;;
20458;SDS011;10388;52.314;7.938;2022-10-16T14:53:28;4.97;;;1.73;;
20458;SDS011;10388;52.314;7.938;2022-10-16T14:55:58;6.00;;;1.17;;
20458;SDS011;10388;52.314;7.938;2022-10-16T14:58:37;2.87;;;1.10;;
20458;SDS011;10388;52.314;7.938;2022-10-16T15:01:09;3.43;;;1.27;;
20458;SDS011;10388;52.314;7.938;2022-10-16T15:03:41;4.90;;;1.20;;
20458;SDS011;10388;52.314;7.938;2022-10-16T15:06:12;2.83;;;0.90;;
20458;SDS011;10388;52.314;7.938;2022-10-16T15:08:44;2.63;;;1.00;;
20458;SDS011;10388;52.314;7.938;2022-10-16T15:11:16;5.93;;;1.03;;
20458;SDS011;10388;52.314;7.938;2022-10-16T15:13:47;17.33;;;2.57;;
20458;SDS011;10388;52.314;7.938;2022-10-16T15:16:18;7.87;;;1.47;;
20458;SDS011;10388;52.314;7.938;2022-10-16T15:18:48;2.73;;;1.10;;
20458;SDS011;10388;52.314;7.938;2022-10-16T15:21:24;4.13;;;1.50;;
20458;SDS011;10388;52.314;7.938;2022-10-16T15:23:59;6.27;;;1.07;;
20458;SDS011;10388;52.314;7.938;2022-10-16T15:26:30;3.53;;;1.20;;
20458;SDS011;10388;52.314;7.938;2022-10-16T15:29:01;4.63;;;1.30;;
20458;SDS011;10388;52.314;7.938;2022-10-16T15:31:31;5.13;;;1.40;;
20458;SDS011;10388;52.314;7.938;2022-10-16T15:34:02;3.30;;;1.10;;
20458;SDS011;10388;52.314;7.938;2022-10-16T15:36:36;6.10;;;1.43;;
20458;SDS011;10388;52.314;7.938;2022-10-16T15:41:46;3.73;;;1.20;;
20458;SDS011;10388;52.314;7.938;2022-10-16T15:44:20;3.27;;;0.97;;
20458;SDS011;10388;52.314;7.938;2022-10-16T15:46:59;2.87;;;1.10;;
20458;SDS011;10388;52.314;7.938;2022-10-16T15:49:31;2.97;;;1.27;;
20458;SDS011;10388;52.314;7.938;2022-10-16T15:52:01;4.83;;;1.40;;
20458;SDS011;10388;52.314;7.938;2022-10-16T15:54:33;1.20;;;1.00;;
20458;SDS011;10388;52.314;7.938;2022-10-16T15:57:03;2.23;;;1.40;;
20458;SDS011;10388;52.314;7.938;2022-10-16T15:59:34;3.30;;;1.40;;
20458;SDS011;10388;52.314;7.938;2022-10-16T16:02:05;3.87;;;1.40;;
20458;SDS011;10388;52.314;7.938;2022-10-16T16:04:35;4.67;;;1.47;;
20458;SDS011;10388;52.314;7.938;2022-10-16T16:07:06;3.67;;;1.47;;
20458;SDS011;10388;52.314;7.938;2022-10-16T16:09:39;2.40;;;1.63;;
20458;SDS011;10388;52.314;7.938;2022-10-16T16:12:10;3.03;;;1.83;;
20458;SDS011;10388;52.314;7.938;2022-10-16T16:14:41;4.03;;;1.60;;
20458;SDS011;10388;52.314;7.938;2022-10-16T16:17:12;2.27;;;1.20;;
20458;SDS011;10388;52.314;7.938;2022-10-16T16:19:43;3.97;;;1.33;;
20458;SDS011;10388;52.314;7.938;2022-10-16T16:22:13;3.60;;;1.60;;
20458;SDS011;10388;52.314;7.938;2022-10-16T16:24:44;3.23;;;1.50;;
20458;SDS011;10388;52.314;7.938;2022-10-16T16:27:14;4.03;;;1.50;;
20458;SDS011;10388;52.314;7.938;2022-10-16T16:29:45;4.87;;;1.90;;
20458;SDS011;10388;52.314;7.938;2022-10-16T16:32:16;4.93;;;1.50;;
20458;SDS011;10388;52.314;7.938;2022-10-16T16:34:47;2.83;;;1.53;;
20458;SDS011;10388;52.314;7.938;2022-10-16T16:37:17;5.83;;;1.57;;
20458;SDS011;10388;52.314;7.938;2022-10-16T16:39:48;3.10;;;1.10;;
20458;SDS011;10388;52.314;7.938;2022-10-16T16:42:18;4.73;;;1.13;;
20458;SDS011;10388;52.314;7.938;2022-10-16T16:44:49;3.03;;;1.40;;
20458;SDS011;10388;52.314;7.938;2022-10-16T16:47:20;4.50;;;1.63;;
20458;SDS011;10388;52.314;7.938;2022-10-16T16:49:51;5.57;;;2.37;;
20458;SDS011;10388;52.314;7.938;2022-10-16T16:52:21;3.60;;;1.77;;
20458;SDS011;10388;52.314;7.938;2022-10-16T16:54:52;5.33;;;2.37;;
20458;SDS011;10388;52.314;7.938;2022-10-16T16:57:22;8.50;;;2.63;;
20458;SDS011;10388;52.314;7.938;2022-10-16T16:59:53;7.47;;;3.40;;
20458;SDS011;10388;52.314;7.938;2022-10-16T17:02:23;4.70;;;3.03;;
20458;SDS011;10388;52.314;7.938;2022-10-16T17:04:55;9.10;;;3.07;;
20458;SDS011;10388;52.314;7.938;2022-10-16T17:07:30;4.33;;;2.47;;
20458;SDS011;10388;52.314;7.938;2022-10-16T17:10:02;8.07;;;3.10;;
20458;SDS011;10388;52.314;7.938;2022-10-16T17:12:33;3.73;;;1.80;;
20458;SDS011;10388;52.314;7.938;2022-10-16T17:15:03;3.17;;;1.70;;
20458;SDS011;10388;52.314;7.938;2022-10-16T17:17:34;3.63;;;1.70;;
20458;SDS011;10388;52.314;7.938;2022-10-16T17:20:05;5.30;;;1.87;;